createdAt,value
2022-10-29T00:00:08.195Z,1020.7
2022-10-29T00:05:08.024Z,1020.68
2022-10-29T00:10:07.737Z,1020.7
2022-10-29T00:15:08.451Z,1020.64
2022-10-29T00:25:07.843Z,1020.87
2022-10-29T00:30:08.561Z,1020.84
2022-10-29T00:35:08.301Z,1020.86
2022-10-29T00:40:08.015Z,1020.8
2022-10-29T00:45:07.718Z,1020.75
2022-10-29T00:50:08.453Z,1020.54
2022-10-29T00:55:08.174Z,1020.56
2022-10-29T01:00:07.897Z,1020.53
2022-10-29T01:05:08.575Z,1020.45
2022-10-29T01:10:08.286Z,1020.58
2022-10-29T01:15:08.007Z,1020.48
2022-10-29T01:20:07.753Z,1020.45
2022-10-29T01:25:08.484Z,1020.47
2022-10-29T01:30:08.178Z,1020.45
2022-10-29T01:35:07.880Z,1020.38
2022-10-29T01:40:08.576Z,1020.36
2022-10-29T01:45:08.293Z,1020.38
2022-10-29T01:50:08.042Z,1020.46
2022-10-29T01:55:07.720Z,1020.32
2022-10-29T02:00:10.935Z,1020.25
2022-10-29T02:05:08.616Z,1020.26
2022-10-29T02:10:08.347Z,1020.29
2022-10-29T02:15:08.046Z,1020.17
2022-10-29T02:20:07.747Z,1020.09
2022-10-29T02:25:08.552Z,1020.02
2022-10-29T02:30:08.285Z,1019.9
2022-10-29T02:35:08.003Z,1019.98
2022-10-29T02:40:07.749Z,1019.89
2022-10-29T02:45:09.220Z,1019.88
2022-10-29T02:50:07.899Z,1019.86
2022-10-29T02:55:08.640Z,1019.78
2022-10-29T03:00:08.346Z,1019.69
2022-10-29T03:05:08.024Z,1019.64
2022-10-29T03:10:07.705Z,1019.74
2022-10-29T03:15:08.425Z,1019.65
2022-10-29T03:20:08.143Z,1019.51
2022-10-29T03:25:07.877Z,1019.55
2022-10-29T03:30:08.606Z,1019.52
2022-10-29T03:35:08.322Z,1019.42
2022-10-29T03:40:08.063Z,1019.42
2022-10-29T03:45:07.753Z,1019.37
2022-10-29T03:50:08.470Z,1019.42
2022-10-29T03:55:08.162Z,1019.44
2022-10-29T04:00:07.856Z,1019.46
2022-10-29T04:05:02.616Z,1019.44
2022-10-29T04:10:02.457Z,1019.55
2022-10-29T04:15:02.271Z,1019.5
2022-10-29T04:20:02.058Z,1019.52
2022-10-29T04:30:02.611Z,1019.3
2022-10-29T04:35:02.496Z,1019.41
2022-10-29T04:40:02.311Z,1019.39
2022-10-29T04:45:02.068Z,1019.23
2022-10-29T04:50:01.903Z,1019.22
2022-10-29T04:55:03.030Z,1019.14
2022-10-29T05:00:02.048Z,1019.14
2022-10-29T05:05:01.850Z,1019.03
2022-10-29T05:10:02.663Z,1018.87
2022-10-29T05:15:02.458Z,1018.89
2022-10-29T05:20:02.284Z,1018.82
2022-10-29T05:25:01.986Z,1018.81
2022-10-29T05:30:01.735Z,1018.85
2022-10-29T05:35:02.449Z,1019.03
2022-10-29T05:40:02.316Z,1018.93
2022-10-29T05:45:02.291Z,1018.94
2022-10-29T05:50:02.197Z,1018.88
2022-10-29T05:55:02.100Z,1018.88
2022-10-29T06:00:02.062Z,1018.85
2022-10-29T06:05:01.851Z,1018.74
2022-10-29T06:10:02.602Z,1018.73
2022-10-29T06:15:02.560Z,1018.85
2022-10-29T06:20:02.403Z,1018.82
2022-10-29T06:25:02.208Z,1018.69
2022-10-29T06:30:02.014Z,1018.74
2022-10-29T06:35:01.739Z,1018.67
2022-10-29T06:40:02.520Z,1018.7
2022-10-29T06:45:02.434Z,1018.79
2022-10-29T06:50:02.240Z,1018.92
2022-10-29T06:55:01.975Z,1018.8
2022-10-29T07:00:05.659Z,1018.65
2022-10-29T07:05:02.405Z,1018.61
2022-10-29T07:10:02.201Z,1018.85
2022-10-29T07:15:01.888Z,1018.76
2022-10-29T07:20:02.668Z,1018.78
2022-10-29T07:25:02.496Z,1018.84
2022-10-29T07:30:02.361Z,1018.93
2022-10-29T07:35:02.149Z,1019.04
2022-10-29T07:40:01.976Z,1018.91
2022-10-29T07:45:01.702Z,1018.95
2022-10-29T07:50:02.445Z,1018.99
2022-10-29T07:55:02.296Z,1018.99
2022-10-29T08:00:02.117Z,1018.82
2022-10-29T08:05:01.865Z,1018.82
2022-10-29T08:10:02.599Z,1018.79
2022-10-29T08:15:02.412Z,1018.84
2022-10-29T08:20:02.249Z,1018.68
2022-10-29T08:25:02.170Z,1018.62
2022-10-29T08:30:02.122Z,1018.73
2022-10-29T08:35:02.054Z,1018.61
2022-10-29T08:40:01.975Z,1018.59
2022-10-29T08:45:01.921Z,1018.59
2022-10-29T08:50:02.884Z,1018.52
2022-10-29T08:55:02.805Z,1018.58
2022-10-29T09:00:02.700Z,1018.4
2022-10-29T09:05:02.552Z,1018.39
2022-10-29T09:10:02.397Z,1018.39
2022-10-29T09:15:02.201Z,1018.46
2022-10-29T09:20:02.025Z,1018.62
2022-10-29T09:25:01.746Z,1018.5
2022-10-29T09:30:02.555Z,1018.46
2022-10-29T09:35:02.335Z,1018.46
2022-10-29T09:40:02.095Z,1018.44
2022-10-29T09:45:01.871Z,1018.45
2022-10-29T09:50:07.177Z,1018.5
2022-10-29T09:55:02.538Z,1018.37
2022-10-29T10:00:02.362Z,1018.33
2022-10-29T10:05:02.154Z,1018.19
2022-10-29T10:10:01.947Z,1018.14
2022-10-29T10:15:01.785Z,1018.32
2022-10-29T10:20:02.548Z,1018.2
2022-10-29T10:25:02.368Z,1018.04
2022-10-29T10:30:02.219Z,1017.77
2022-10-29T10:35:02.019Z,1017.93
2022-10-29T10:40:01.842Z,1018.06
2022-10-29T10:45:02.706Z,1017.88
2022-10-29T10:50:02.439Z,1017.81
2022-10-29T10:55:02.249Z,1017.57
2022-10-29T11:00:01.978Z,1017.75
2022-10-29T11:05:05.167Z,1017.8
2022-10-29T11:10:02.569Z,1017.72
2022-10-29T11:15:02.476Z,1017.75
2022-10-29T11:20:02.368Z,1017.76
2022-10-29T11:25:02.257Z,1017.72
2022-10-29T11:30:02.172Z,1017.72
2022-10-29T11:35:03.994Z,1017.71
2022-10-29T11:40:02.050Z,1017.64
2022-10-29T11:45:01.893Z,1017.47
2022-10-29T11:50:02.637Z,1017.44
2022-10-29T11:55:02.455Z,1017.51
2022-10-29T12:00:02.273Z,1017.56
2022-10-29T12:05:02.145Z,1017.54
2022-10-29T12:10:12.078Z,1017.32
2022-10-29T12:15:01.837Z,1017.33
2022-10-29T12:20:02.663Z,1017.21
2022-10-29T12:25:02.421Z,1017.19
2022-10-29T12:30:02.167Z,1017.07
2022-10-29T12:35:02.034Z,1016.98
2022-10-29T12:40:01.838Z,1016.89
2022-10-29T12:45:02.673Z,1016.88
2022-10-29T12:50:12.489Z,1016.84
2022-10-29T12:55:02.228Z,1016.83
2022-10-29T13:00:02.050Z,1016.71
2022-10-29T13:05:01.809Z,1016.6
2022-10-29T13:10:02.668Z,1016.6
2022-10-29T13:15:02.474Z,1016.63
2022-10-29T13:20:02.310Z,1016.59
2022-10-29T13:25:02.128Z,1016.45
2022-10-29T13:30:01.890Z,1016.37
2022-10-29T13:35:02.740Z,1016.35
2022-10-29T13:40:02.615Z,1016.28
2022-10-29T13:45:02.453Z,1016.2
2022-10-29T13:50:02.292Z,1016.18
2022-10-29T13:55:02.232Z,1016.12
2022-10-29T14:00:02.142Z,1016.12
2022-10-29T14:05:02.085Z,1016.08
2022-10-29T14:10:02.010Z,1016.08
2022-10-29T14:15:08.881Z,1016.12
2022-10-29T14:20:02.684Z,1016.0
2022-10-29T14:25:17.138Z,1015.95
2022-10-29T14:30:01.755Z,1016.05
2022-10-29T14:35:02.485Z,1016.04
2022-10-29T14:40:02.315Z,1016.01
2022-10-29T14:45:02.138Z,1016.01
2022-10-29T14:50:02.024Z,1015.95
2022-10-29T14:55:01.804Z,1015.95
2022-10-29T15:00:02.554Z,1015.97
2022-10-29T15:05:07.313Z,1015.88
2022-10-29T15:10:12.407Z,1015.95
2022-10-29T15:15:02.129Z,1015.94
2022-10-29T15:20:02.008Z,1015.86
2022-10-29T15:25:01.787Z,1015.75
2022-10-29T15:30:02.592Z,1015.76
2022-10-29T15:35:02.828Z,1015.78
2022-10-29T15:40:02.706Z,1015.74
2022-10-29T15:45:02.688Z,1015.74
2022-10-29T15:50:02.494Z,1015.82
2022-10-29T15:55:02.355Z,1015.73
2022-10-29T16:05:01.972Z,1015.66
2022-10-29T16:10:01.840Z,1015.71
2022-10-29T16:15:02.678Z,1015.64
2022-10-29T16:20:02.473Z,1015.58
2022-10-29T16:25:02.451Z,1015.58
2022-10-29T16:30:02.374Z,1015.43
2022-10-29T16:35:02.355Z,1015.49
2022-10-29T16:40:02.338Z,1015.44
2022-10-29T16:45:02.272Z,1015.43
2022-10-29T16:50:02.438Z,1015.43
2022-10-29T16:55:02.410Z,1015.42
2022-10-29T17:00:02.391Z,1015.48
2022-10-29T17:05:02.166Z,1015.46
2022-10-29T17:10:03.168Z,1015.47
2022-10-29T17:15:01.976Z,1015.34
2022-10-29T17:20:01.787Z,1015.33
2022-10-29T17:25:02.621Z,1015.31
2022-10-29T17:30:02.464Z,1015.24
2022-10-29T17:35:02.254Z,1015.27
2022-10-29T17:40:06.762Z,1015.32
2022-10-29T17:45:01.925Z,1015.32
2022-10-29T17:50:02.671Z,1015.15
2022-10-29T17:55:02.519Z,1015.18
2022-10-29T18:00:02.344Z,1015.25
2022-10-29T18:05:02.263Z,1015.14
2022-10-29T18:10:02.103Z,1015.07
2022-10-29T18:15:01.921Z,1015.09
2022-10-29T18:20:02.782Z,1015.24
2022-10-29T18:25:02.610Z,1015.17
2022-10-29T18:30:02.493Z,1015.06
2022-10-29T18:35:02.336Z,1015.08
2022-10-29T18:40:02.233Z,1015.13
2022-10-29T18:45:02.025Z,1014.97
2022-10-29T18:50:02.129Z,1015.02
2022-10-29T18:55:02.003Z,1015.09
2022-10-29T19:00:01.906Z,1015.18
2022-10-29T19:05:02.761Z,1015.22
2022-10-29T19:10:02.686Z,1015.54
2022-10-29T19:15:02.528Z,1015.52
2022-10-29T19:20:02.463Z,1015.4
2022-10-29T19:25:02.369Z,1015.47
2022-10-29T19:30:02.374Z,1015.52
2022-10-29T19:35:02.282Z,1015.58
2022-10-29T19:40:02.178Z,1015.54
2022-10-29T19:45:02.014Z,1015.55
2022-10-29T19:50:01.830Z,1015.56
2022-10-29T19:55:02.676Z,1015.5
2022-10-29T20:00:02.504Z,1015.45
2022-10-29T20:05:02.345Z,1015.4
2022-10-29T20:10:02.189Z,1015.38
2022-10-29T20:15:02.027Z,1015.38
2022-10-29T20:20:01.820Z,1015.5
2022-10-29T20:25:02.591Z,1015.46
2022-10-29T20:30:02.419Z,1015.52
2022-10-29T20:35:02.242Z,1015.63
2022-10-29T20:40:02.054Z,1015.57
2022-10-29T20:45:01.868Z,1015.66
2022-10-29T20:50:02.624Z,1015.65
2022-10-29T20:55:02.469Z,1015.62
2022-10-29T21:00:02.294Z,1015.77
2022-10-29T21:05:02.142Z,1015.74
2022-10-29T21:10:01.972Z,1015.77
2022-10-29T21:15:01.762Z,1015.83
2022-10-29T21:20:02.530Z,1015.86
2022-10-29T21:25:02.342Z,1015.88
2022-10-29T21:30:02.087Z,1015.92
2022-10-29T21:35:07.815Z,1015.88
2022-10-29T21:40:08.531Z,1016.02
2022-10-29T21:45:08.237Z,1015.98
2022-10-29T21:50:07.942Z,1015.98
2022-10-29T21:55:08.618Z,1015.95
2022-10-29T22:00:08.386Z,1015.89
2022-10-29T22:05:08.096Z,1015.88
2022-10-29T22:10:07.797Z,1015.9
2022-10-29T22:15:08.506Z,1015.82
2022-10-29T22:20:08.229Z,1015.89
2022-10-29T22:25:08.000Z,1015.92
2022-10-29T22:30:07.720Z,1016.02
2022-10-29T22:35:08.425Z,1015.89
2022-10-29T22:40:08.107Z,1015.91
2022-10-29T22:45:07.808Z,1015.83
2022-10-29T22:50:08.498Z,1015.86
2022-10-29T22:55:08.257Z,1015.89
2022-10-29T23:01:02.944Z,1015.88
2022-10-29T23:05:07.761Z,1015.84
2022-10-29T23:10:08.198Z,1015.88
2022-10-29T23:15:07.904Z,1015.93
2022-10-29T23:20:09.117Z,1015.93
2022-10-29T23:25:07.806Z,1016.0
2022-10-29T23:30:08.500Z,1016.01
2022-10-29T23:35:08.220Z,1015.99
2022-10-29T23:40:07.913Z,1015.91
2022-10-29T23:45:08.596Z,1015.91
2022-10-29T23:50:08.285Z,1015.91
2022-10-29T23:55:07.978Z,1015.95
